createdAt,value
2023-04-22T00:01:25.271Z,10.10
2023-04-22T00:03:52.425Z,10.80
2023-04-22T00:06:21.648Z,10.50
2023-04-22T00:08:49.775Z,12.07
2023-04-22T00:11:16.857Z,11.27
2023-04-22T00:13:44.084Z,11.30
2023-04-22T00:16:11.178Z,11.17
2023-04-22T00:18:38.282Z,11.00
2023-04-22T00:21:06.373Z,10.80
2023-04-22T00:23:33.655Z,11.13
2023-04-22T00:26:01.778Z,10.77
2023-04-22T00:28:28.767Z,10.77
2023-04-22T00:30:55.814Z,12.20
2023-04-22T00:33:22.829Z,12.60
2023-04-22T00:35:56.072Z,12.37
2023-04-22T00:38:23.368Z,12.50
2023-04-22T00:40:50.314Z,12.83
2023-04-22T00:43:18.121Z,12.47
2023-04-22T00:45:46.091Z,13.20
2023-04-22T00:48:15.336Z,13.20
2023-04-22T00:50:42.353Z,13.63
2023-04-22T00:53:09.285Z,12.60
2023-04-22T00:55:37.452Z,13.23
2023-04-22T00:58:05.331Z,14.17
2023-04-22T01:00:33.077Z,13.17
2023-04-22T01:03:01.504Z,15.00
2023-04-22T01:05:31.830Z,12.97
2023-04-22T01:07:59.373Z,12.43
2023-04-22T01:10:26.271Z,12.67
2023-04-22T01:12:53.464Z,13.63
2023-04-22T01:15:20.590Z,13.17
2023-04-22T01:17:48.289Z,12.33
2023-04-22T01:20:19.714Z,14.33
2023-04-22T01:22:50.802Z,14.73
2023-04-22T01:25:19.037Z,13.97
2023-04-22T01:27:46.162Z,14.30
2023-04-22T01:30:13.322Z,13.20
2023-04-22T01:32:41.320Z,14.10
2023-04-22T01:35:09.461Z,13.00
2023-04-22T01:37:36.875Z,14.50
2023-04-22T01:40:04.962Z,13.90
2023-04-22T01:42:32.550Z,14.20
2023-04-22T01:45:01.633Z,12.33
2023-04-22T01:47:28.723Z,15.50
2023-04-22T01:49:55.632Z,13.63
2023-04-22T01:52:23.720Z,15.40
2023-04-22T01:54:53.617Z,13.70
2023-04-22T01:57:21.575Z,15.07
2023-04-22T01:59:48.296Z,13.00
2023-04-22T02:02:15.257Z,13.40
2023-04-22T02:04:42.391Z,13.00
2023-04-22T02:07:09.311Z,13.30
2023-04-22T02:09:37.858Z,15.40
2023-04-22T02:12:05.228Z,13.77
2023-04-22T02:14:32.130Z,11.83
2023-04-22T02:17:09.137Z,12.40
2023-04-22T02:19:36.250Z,13.13
2023-04-22T02:22:04.392Z,11.37
2023-04-22T02:24:32.461Z,12.33
2023-04-22T02:26:59.326Z,13.03
2023-04-22T02:29:27.422Z,11.23
2023-04-22T02:31:54.492Z,11.67
2023-04-22T02:34:21.743Z,13.03
2023-04-22T02:36:48.640Z,13.37
2023-04-22T02:39:15.711Z,13.40
2023-04-22T02:41:42.786Z,13.13
2023-04-22T02:44:10.723Z,13.27
2023-04-22T02:46:37.701Z,12.67
2023-04-22T02:49:08.646Z,14.27
2023-04-22T02:51:37.793Z,12.70
2023-04-22T02:54:06.724Z,11.77
2023-04-22T02:56:33.632Z,11.57
2023-04-22T02:59:00.680Z,12.10
2023-04-22T03:01:27.607Z,12.57
2023-04-22T03:03:56.470Z,12.40
2023-04-22T03:06:24.613Z,11.93
2023-04-22T03:08:51.602Z,13.53
2023-04-22T03:11:20.950Z,13.07
2023-04-22T03:13:47.958Z,14.27
2023-04-22T03:16:14.820Z,15.23
2023-04-22T03:18:41.809Z,14.03
2023-04-22T03:21:08.708Z,14.57
2023-04-22T03:23:35.685Z,13.43
2023-04-22T03:26:03.818Z,14.30
2023-04-22T03:28:30.662Z,11.60
2023-04-22T03:30:58.638Z,13.13
2023-04-22T03:33:26.607Z,12.13
2023-04-22T03:35:56.408Z,11.00
2023-04-22T03:38:23.263Z,12.13
2023-04-22T03:40:51.673Z,11.37
2023-04-22T03:43:18.887Z,13.00
2023-04-22T03:45:46.125Z,13.40
2023-04-22T03:48:16.300Z,14.10
2023-04-22T03:50:43.363Z,13.80
2023-04-22T03:53:10.287Z,13.17
2023-04-22T03:55:38.371Z,12.60
2023-04-22T03:58:06.490Z,14.57
2023-04-22T04:00:44.689Z,13.50
2023-04-22T04:03:37.796Z,12.60
2023-04-22T04:06:05.385Z,15.00
2023-04-22T04:08:39.735Z,12.23
2023-04-22T04:11:11.653Z,12.67
2023-04-22T04:13:41.857Z,13.17
2023-04-22T04:16:08.872Z,13.43
2023-04-22T04:18:39.141Z,13.87
2023-04-22T04:21:39.640Z,14.33
2023-04-22T04:24:19.859Z,14.30
2023-04-22T04:26:49.165Z,13.57
2023-04-22T04:29:20.834Z,15.47
2023-04-22T04:32:22.441Z,13.97
2023-04-22T04:35:18.672Z,13.63
2023-04-22T04:37:53.923Z,14.07
2023-04-22T04:40:25.204Z,13.77
2023-04-22T04:42:53.291Z,15.10
2023-04-22T04:45:25.330Z,15.47
2023-04-22T04:48:37.347Z,15.03
2023-04-22T04:51:08.079Z,14.93
2023-04-22T04:54:19.047Z,15.03
2023-04-22T04:57:05.244Z,14.03
2023-04-22T04:59:33.340Z,14.70
2023-04-22T05:02:05.748Z,16.03
2023-04-22T05:08:17.256Z,15.63
2023-04-22T05:10:45.291Z,14.77
2023-04-22T05:21:04.475Z,17.27
2023-04-22T05:24:08.992Z,19.57
2023-04-22T05:26:40.818Z,17.50
2023-04-22T05:33:17.447Z,19.17
2023-04-22T05:35:56.744Z,20.73
2023-04-22T05:39:04.082Z,21.37
2023-04-22T05:41:57.483Z,18.83
2023-04-22T05:44:43.704Z,17.47
2023-04-22T05:47:16.794Z,15.37
2023-04-22T05:49:55.168Z,16.10
2023-04-22T05:52:29.052Z,17.07
2023-04-22T05:55:02.473Z,16.70
2023-04-22T05:57:56.376Z,14.37
2023-04-22T06:00:45.335Z,17.03
2023-04-22T06:03:12.510Z,16.53
2023-04-22T06:05:46.939Z,15.67
2023-04-22T06:08:13.905Z,16.37
2023-04-22T06:10:45.233Z,16.07
2023-04-22T06:13:13.145Z,17.63
2023-04-22T06:15:40.218Z,15.97
2023-04-22T06:18:09.726Z,17.23
2023-04-22T06:20:39.335Z,17.60
2023-04-22T06:23:07.424Z,17.50
2023-04-22T06:25:34.512Z,15.67
2023-04-22T06:28:02.510Z,17.27
2023-04-22T06:30:29.482Z,15.93
2023-04-22T06:32:56.570Z,18.03
2023-04-22T06:35:24.748Z,17.97
2023-04-22T06:37:52.807Z,18.10
2023-04-22T06:40:22.911Z,18.17
2023-04-22T06:42:49.779Z,17.90
2023-04-22T06:45:20.772Z,19.50
2023-04-22T06:47:48.080Z,19.67
2023-04-22T06:50:15.126Z,21.07
2023-04-22T06:52:43.092Z,21.83
2023-04-22T06:55:10.557Z,20.00
2023-04-22T06:57:37.865Z,20.90
2023-04-22T07:00:11.125Z,21.77
2023-04-22T07:02:41.277Z,23.57
2023-04-22T07:05:08.412Z,23.23
2023-04-22T07:07:36.595Z,22.67
2023-04-22T07:10:12.283Z,25.07
2023-04-22T07:12:41.792Z,19.70
2023-04-22T07:15:08.960Z,17.27
2023-04-22T07:17:36.022Z,16.07
2023-04-22T07:20:06.723Z,15.82
2023-04-22T07:22:33.607Z,14.05
2023-04-22T07:25:00.695Z,13.77
2023-04-22T07:27:27.724Z,13.55
2023-04-22T07:30:26.209Z,12.35
2023-04-22T07:32:52.559Z,12.82
2023-04-22T07:35:19.426Z,13.18
2023-04-22T07:37:46.495Z,12.43
2023-04-22T07:40:15.788Z,12.95
2023-04-22T07:42:42.968Z,13.85
2023-04-22T07:45:12.362Z,12.30
2023-04-22T07:47:50.113Z,13.35
2023-04-22T07:50:17.124Z,12.93
2023-04-22T07:52:44.006Z,11.73
2023-04-22T07:55:12.022Z,12.63
2023-04-22T07:57:40.047Z,12.70
2023-04-22T08:00:09.012Z,12.68
2023-04-22T08:02:37.264Z,12.02
2023-04-22T08:05:04.650Z,12.15
2023-04-22T08:07:33.675Z,11.50
2023-04-22T08:10:01.068Z,12.05
2023-04-22T08:12:30.002Z,12.27
2023-04-22T08:14:58.710Z,12.07
2023-04-22T08:17:28.221Z,10.93
2023-04-22T08:19:56.434Z,10.32
2023-04-22T08:22:24.366Z,11.48
2023-04-22T08:24:53.549Z,10.85
2023-04-22T08:27:22.669Z,10.27
2023-04-22T08:29:49.778Z,10.43
2023-04-22T08:32:20.216Z,9.68
2023-04-22T08:34:47.398Z,10.38
2023-04-22T08:37:18.773Z,10.50
2023-04-22T08:39:46.893Z,11.95
2023-04-22T08:42:16.491Z,10.57
2023-04-22T08:44:45.057Z,11.48
2023-04-22T08:47:15.214Z,10.10
2023-04-22T08:49:44.199Z,10.23
2023-04-22T08:52:13.096Z,10.85
2023-04-22T08:54:40.090Z,10.60
2023-04-22T08:57:08.772Z,11.23
2023-04-22T08:59:37.326Z,10.77
2023-04-22T09:02:07.708Z,10.77
2023-04-22T09:04:34.872Z,10.85
2023-04-22T09:07:03.303Z,10.93
2023-04-22T09:09:32.074Z,11.25
2023-04-22T09:12:01.260Z,10.38
2023-04-22T09:14:28.307Z,10.52
2023-04-22T09:16:58.587Z,11.30
2023-04-22T09:19:26.005Z,10.38
2023-04-22T09:21:58.864Z,10.40
2023-04-22T09:24:27.850Z,9.93
2023-04-22T09:26:56.539Z,9.48
2023-04-22T09:29:30.458Z,10.38
2023-04-22T09:31:57.699Z,10.15
2023-04-22T09:34:24.707Z,9.55
2023-04-22T09:36:55.031Z,9.60
2023-04-22T09:39:23.813Z,9.65
2023-04-22T09:41:59.656Z,9.07
2023-04-22T09:44:32.390Z,9.55
2023-04-22T09:47:01.899Z,9.82
2023-04-22T09:49:31.322Z,10.43
2023-04-22T09:51:59.356Z,10.18
2023-04-22T09:54:29.688Z,10.30
2023-04-22T09:56:56.795Z,9.95
2023-04-22T09:59:26.409Z,9.52
2023-04-22T10:02:04.716Z,10.57
2023-04-22T10:04:33.225Z,9.98
2023-04-22T10:07:02.634Z,10.30
2023-04-22T10:09:29.528Z,9.75
2023-04-22T10:11:59.152Z,10.07
2023-04-22T10:14:27.852Z,10.85
2023-04-22T10:17:00.935Z,10.30
2023-04-22T10:19:29.072Z,9.85
2023-04-22T10:22:04.011Z,10.07
2023-04-22T10:24:36.767Z,9.93
2023-04-22T10:27:08.657Z,10.07
2023-04-22T10:29:39.040Z,10.00
2023-04-22T10:32:20.614Z,9.90
2023-04-22T10:34:52.759Z,8.60
2023-04-22T10:37:21.869Z,9.38
2023-04-22T10:40:08.419Z,9.13
2023-04-22T10:42:37.578Z,9.27
2023-04-22T10:45:05.477Z,8.93
2023-04-22T10:47:42.324Z,9.23
2023-04-22T10:50:18.801Z,8.32
2023-04-22T10:52:56.588Z,8.43
2023-04-22T10:55:27.723Z,8.57
2023-04-22T10:58:02.093Z,8.32
2023-04-22T11:00:52.213Z,7.78
2023-04-22T11:03:30.130Z,7.90
2023-04-22T11:06:28.042Z,8.75
2023-04-22T11:09:21.795Z,8.35
2023-04-22T11:11:50.847Z,7.80
2023-04-22T11:14:18.611Z,8.18
2023-04-22T11:16:48.834Z,8.00
2023-04-22T11:19:16.150Z,8.65
2023-04-22T11:21:44.231Z,8.73
2023-04-22T11:24:11.267Z,8.50
2023-04-22T11:26:47.329Z,8.23
2023-04-22T11:29:14.578Z,8.10
2023-04-22T11:31:48.251Z,8.00
2023-04-22T11:34:19.506Z,7.57
2023-04-22T11:36:48.249Z,8.23
2023-04-22T11:39:19.958Z,8.50
2023-04-22T11:41:50.477Z,8.02
2023-04-22T11:44:27.022Z,8.20
2023-04-22T11:47:01.576Z,7.97
2023-04-22T11:49:35.873Z,7.85
2023-04-22T11:52:03.071Z,7.88
2023-04-22T11:54:45.209Z,8.23
2023-04-22T11:57:19.985Z,7.93
2023-04-22T12:00:02.658Z,7.70
2023-04-22T12:03:00.731Z,7.10
2023-04-22T12:05:42.135Z,8.80
2023-04-22T12:08:14.771Z,8.23
2023-04-22T12:10:58.257Z,7.60
2023-04-22T12:13:34.899Z,8.55
2023-04-22T12:16:08.333Z,8.60
2023-04-22T12:19:02.775Z,8.85
2023-04-22T12:21:35.364Z,8.65
2023-04-22T12:24:13.783Z,8.85
2023-04-22T12:26:47.130Z,8.77
2023-04-22T12:29:18.334Z,9.00
2023-04-22T12:31:45.353Z,8.55
2023-04-22T12:34:13.268Z,8.90
2023-04-22T12:36:40.343Z,8.68
2023-04-22T12:39:47.361Z,8.77
2023-04-22T12:42:17.440Z,9.65
2023-04-22T12:44:49.536Z,9.40
2023-04-22T12:47:20.164Z,8.80
2023-04-22T12:49:48.438Z,9.73
2023-04-22T12:52:15.787Z,9.15
2023-04-22T12:54:42.852Z,9.75
2023-04-22T12:57:16.404Z,9.45
2023-04-22T12:59:45.095Z,9.40
2023-04-22T13:02:16.582Z,10.15
2023-04-22T13:05:00.731Z,9.40
2023-04-22T13:07:53.531Z,9.13
2023-04-22T13:10:39.821Z,9.23
2023-04-22T13:13:18.405Z,9.40
2023-04-22T13:21:07.661Z,9.40
2023-04-22T13:26:48.325Z,9.40
2023-04-22T13:33:03.604Z,10.40
2023-04-22T13:35:42.317Z,9.48
2023-04-22T13:38:10.668Z,9.95
2023-04-22T13:40:44.727Z,10.20
2023-04-22T13:43:26.904Z,10.88
2023-04-22T13:45:54.485Z,11.98
2023-04-22T13:48:30.505Z,12.00
2023-04-22T13:51:10.864Z,12.82
2023-04-22T13:53:45.888Z,14.57
2023-04-22T13:56:19.653Z,14.18
2023-04-22T13:58:51.940Z,15.45
2023-04-22T14:01:30.788Z,16.80
2023-04-22T14:04:03.223Z,17.83
2023-04-22T14:06:33.576Z,17.73
2023-04-22T14:09:01.600Z,19.30
2023-04-22T14:11:38.334Z,20.27
2023-04-22T14:14:06.517Z,19.63
2023-04-22T14:16:36.874Z,21.48
2023-04-22T14:22:41.646Z,22.33
2023-04-22T14:25:09.305Z,22.55
2023-04-22T14:27:54.392Z,24.42
2023-04-22T14:30:29.937Z,24.37
2023-04-22T14:33:09.786Z,24.33
2023-04-22T14:35:37.806Z,26.35
2023-04-22T14:38:10.398Z,27.17
2023-04-22T14:40:37.879Z,22.60
2023-04-22T14:43:16.282Z,24.17
2023-04-22T14:45:44.687Z,23.57
2023-04-22T14:48:23.402Z,23.70
2023-04-22T14:50:55.907Z,22.17
2023-04-22T14:53:26.041Z,21.92
2023-04-22T14:55:54.622Z,20.02
2023-04-22T14:58:37.326Z,21.13
2023-04-22T15:01:17.921Z,22.23
2023-04-22T15:04:16.573Z,21.02
2023-04-22T15:07:22.207Z,21.20
2023-04-22T15:10:11.098Z,21.17
2023-04-22T15:12:38.138Z,20.55
2023-04-22T15:15:05.897Z,19.95
2023-04-22T15:17:36.221Z,18.80
2023-04-22T15:20:16.969Z,19.92
2023-04-22T15:22:49.198Z,18.52
2023-04-22T15:25:21.659Z,19.27
2023-04-22T15:28:02.643Z,21.15
2023-04-22T15:30:32.522Z,20.50
2023-04-22T15:33:11.238Z,18.77
2023-04-22T15:35:47.768Z,20.65
2023-04-22T15:41:40.489Z,20.95
2023-04-22T15:44:57.584Z,20.75
2023-04-22T15:51:13.112Z,20.83
2023-04-22T15:53:40.328Z,19.63
2023-04-22T15:56:10.333Z,21.05
2023-04-22T15:58:44.878Z,19.83
2023-04-22T16:01:19.505Z,19.10
2023-04-22T16:03:48.534Z,20.08
2023-04-22T16:06:21.506Z,20.95
2023-04-22T16:08:49.794Z,21.70
2023-04-22T16:11:19.543Z,21.80
2023-04-22T16:13:49.262Z,22.02
2023-04-22T16:16:19.029Z,22.58
2023-04-22T16:18:46.024Z,25.13
2023-04-22T16:21:13.208Z,23.70
2023-04-22T16:23:40.351Z,21.88
2023-04-22T16:26:09.714Z,24.55
2023-04-22T16:28:38.979Z,25.53
2023-04-22T16:31:06.105Z,22.37
2023-04-22T16:33:34.253Z,23.80
2023-04-22T16:36:01.169Z,24.97
2023-04-22T16:38:28.092Z,24.45
2023-04-22T16:40:56.201Z,22.38
2023-04-22T16:51:16.732Z,20.95
2023-04-22T16:53:45.415Z,20.37
2023-04-22T17:01:04.769Z,19.80
2023-04-22T17:02:11.753Z,20.83
2023-04-22T17:04:38.981Z,19.03
2023-04-22T17:07:05.897Z,20.23
2023-04-22T17:10:19.383Z,19.67
2023-04-22T17:12:49.769Z,17.83
2023-04-22T17:15:23.384Z,18.70
2023-04-22T17:17:53.909Z,20.30
2023-04-22T17:20:25.442Z,19.57
2023-04-22T17:22:54.765Z,17.43
2023-04-22T17:28:32.179Z,16.07
2023-04-22T17:31:04.317Z,17.73
2023-04-22T17:33:32.539Z,17.67
2023-04-22T17:35:59.466Z,19.70
2023-04-22T17:38:39.501Z,22.53
2023-04-22T17:41:06.434Z,24.17
2023-04-22T17:43:33.405Z,22.80
2023-04-22T17:46:00.420Z,23.63
2023-04-22T17:48:27.276Z,24.63
2023-04-22T17:50:54.488Z,22.93
2023-04-22T17:53:22.908Z,25.20
2023-04-22T17:55:49.874Z,24.13
2023-04-22T17:58:19.192Z,24.77
2023-04-22T18:00:46.462Z,23.77
2023-04-22T18:03:13.756Z,23.43
2023-04-22T18:05:43.369Z,22.43
2023-04-22T18:08:10.991Z,20.37
2023-04-22T18:10:41.857Z,21.10
2023-04-22T18:13:11.973Z,22.20
2023-04-22T18:15:39.295Z,21.67
2023-04-22T18:18:09.003Z,22.30
2023-04-22T18:20:40.300Z,22.63
2023-04-22T18:23:07.289Z,21.90
2023-04-22T18:25:34.305Z,22.63
2023-04-22T18:28:02.554Z,22.90
2023-04-22T18:34:55.398Z,20.87
2023-04-22T18:37:26.991Z,21.87
2023-04-22T18:39:56.093Z,22.50
2023-04-22T18:42:24.421Z,22.40
2023-04-22T18:44:54.319Z,20.93
2023-04-22T18:47:21.619Z,21.57
2023-04-22T18:49:48.728Z,20.27
2023-04-22T18:52:17.381Z,21.90
2023-04-22T18:54:44.776Z,21.57
2023-04-22T18:57:11.771Z,24.43
2023-04-22T18:59:39.891Z,23.63
2023-04-22T19:02:13.362Z,23.90
2023-04-22T19:04:40.818Z,23.27
2023-04-22T19:07:08.082Z,21.67
2023-04-22T19:09:35.143Z,22.53
2023-04-22T19:12:02.414Z,21.07
2023-04-22T19:14:33.860Z,21.67
2023-04-22T19:17:09.400Z,23.33
2023-04-22T19:19:36.400Z,20.77
2023-04-22T19:22:06.236Z,22.37
2023-04-22T19:24:35.310Z,22.37
2023-04-22T19:27:02.967Z,23.63
2023-04-22T19:29:30.111Z,24.23
2023-04-22T19:31:57.474Z,25.57
2023-04-22T19:34:24.532Z,27.47
2023-04-22T19:36:54.554Z,25.53
2023-04-22T19:39:23.843Z,28.93
2023-04-22T19:41:50.911Z,29.43
2023-04-22T19:44:18.374Z,27.43
2023-04-22T19:46:45.496Z,30.57
2023-04-22T19:49:12.730Z,29.00
2023-04-22T19:51:41.144Z,32.40
2023-04-22T19:54:19.827Z,31.30
2023-04-22T19:56:53.172Z,32.47
2023-04-22T19:59:20.489Z,32.37
2023-04-22T20:01:47.738Z,29.77
2023-04-22T20:04:15.068Z,32.47
2023-04-22T20:06:45.032Z,33.47
2023-04-22T20:09:13.650Z,34.70
2023-04-22T20:11:41.483Z,34.43
2023-04-22T20:14:09.942Z,32.57
2023-04-22T20:16:40.553Z,36.57
2023-04-22T20:19:07.685Z,35.20
2023-04-22T20:21:36.435Z,37.80
2023-04-22T20:24:04.495Z,37.67
2023-04-22T20:26:32.981Z,37.20
2023-04-22T20:29:00.865Z,38.37
2023-04-22T20:31:27.915Z,38.63
2023-04-22T20:33:55.024Z,38.40
2023-04-22T20:36:24.260Z,38.97
2023-04-22T20:38:56.276Z,39.90
2023-04-22T20:41:26.730Z,40.33
2023-04-22T20:43:53.890Z,42.73
2023-04-22T20:46:23.351Z,43.43
2023-04-22T20:48:52.786Z,43.53
2023-04-22T20:51:19.835Z,44.77
2023-04-22T20:53:46.929Z,44.23
2023-04-22T20:56:14.145Z,44.77
2023-04-22T20:58:41.488Z,44.70
2023-04-22T21:01:11.351Z,47.47
2023-04-22T21:03:40.324Z,48.87
2023-04-22T21:06:08.873Z,46.90
2023-04-22T21:08:39.458Z,47.73
2023-04-22T21:11:06.841Z,48.53
2023-04-22T21:13:37.272Z,47.77
2023-04-22T21:16:09.821Z,48.57
2023-04-22T21:18:39.829Z,49.03
2023-04-22T21:21:08.795Z,49.60
2023-04-22T21:23:37.494Z,50.77
2023-04-22T21:26:06.008Z,52.07
2023-04-22T21:28:33.240Z,54.63
2023-04-22T21:31:00.480Z,53.93
2023-04-22T21:33:33.573Z,54.47
2023-04-22T21:36:00.551Z,52.40
2023-04-22T21:38:27.875Z,56.33
2023-04-22T21:40:54.883Z,55.30
2023-04-22T21:43:21.916Z,55.10
2023-04-22T21:45:48.740Z,58.83
2023-04-22T21:48:20.889Z,58.10
2023-04-22T21:50:47.856Z,58.37
2023-04-22T21:53:14.751Z,60.57
2023-04-22T21:55:41.707Z,60.50
2023-04-22T21:58:09.864Z,62.17
2023-04-22T22:00:37.887Z,62.47
2023-04-22T22:03:06.393Z,60.97
2023-04-22T22:05:33.539Z,59.97
2023-04-22T22:08:00.661Z,61.23
2023-04-22T22:10:28.052Z,59.33
2023-04-22T22:12:55.061Z,58.60
2023-04-22T22:15:22.011Z,58.80
2023-04-22T22:17:49.651Z,63.10
2023-04-22T22:20:20.401Z,60.47
2023-04-22T22:22:48.035Z,60.13
2023-04-22T22:25:19.030Z,60.90
2023-04-22T22:27:47.302Z,60.80
2023-04-22T22:30:18.291Z,62.00
2023-04-22T22:32:45.284Z,61.87
2023-04-22T22:35:12.250Z,59.77
2023-04-22T22:37:39.507Z,64.30
2023-04-22T22:40:06.949Z,65.60
2023-04-22T22:42:34.056Z,60.73
2023-04-22T22:45:01.152Z,60.13
2023-04-22T22:47:28.140Z,57.37
2023-04-22T22:49:56.489Z,62.03
2023-04-22T22:52:23.555Z,61.67
2023-04-22T22:54:50.470Z,65.07
2023-04-22T22:57:17.487Z,59.00
2023-04-22T22:59:44.357Z,62.83
2023-04-22T23:02:11.537Z,66.80
2023-04-22T23:04:39.639Z,62.17
2023-04-22T23:07:06.823Z,64.77
2023-04-22T23:09:36.344Z,65.03
2023-04-22T23:12:04.995Z,69.67
2023-04-22T23:14:33.497Z,72.07
2023-04-22T23:17:00.571Z,71.50
2023-04-22T23:19:28.522Z,66.83
2023-04-22T23:21:56.513Z,72.07
2023-04-22T23:24:23.693Z,72.70
2023-04-22T23:26:51.092Z,72.43
2023-04-22T23:29:19.559Z,72.60
2023-04-22T23:31:50.492Z,72.70
2023-04-22T23:34:21.920Z,68.63
2023-04-22T23:36:49.361Z,70.57
2023-04-22T23:39:16.695Z,71.73
2023-04-22T23:41:43.569Z,69.03
2023-04-22T23:44:11.365Z,72.03
2023-04-22T23:46:39.462Z,70.70
2023-04-22T23:49:07.237Z,67.67
2023-04-22T23:51:35.251Z,69.40
2023-04-22T23:54:02.221Z,70.10
2023-04-22T23:56:29.424Z,73.13
2023-04-22T23:58:57.225Z,71.13
